sensor_id;sensor_type;location;lat;lon;timestamp;P1;durP1;ratioP1;P2;durP2;ratioP2
3211;SDS011;1618;47.056;15.472;2023-04-24T00:00:24;7.30;;;5.67;;
3211;SDS011;1618;47.056;15.472;2023-04-24T00:02:51;6.50;;;5.90;;
3211;SDS011;1618;47.056;15.472;2023-04-24T00:05:23;6.03;;;5.53;;
3211;SDS011;1618;47.056;15.472;2023-04-24T00:07:50;6.60;;;6.00;;
3211;SDS011;1618;47.056;15.472;2023-04-24T00:10:19;5.57;;;5.17;;
3211;SDS011;1618;47.056;15.472;2023-04-24T00:12:47;6.87;;;5.93;;
3211;SDS011;1618;47.056;15.472;2023-04-24T00:15:14;7.30;;;5.63;;
3211;SDS011;1618;47.056;15.472;2023-04-24T00:17:43;7.40;;;6.80;;
3211;SDS011;1618;47.056;15.472;2023-04-24T00:20:10;6.73;;;6.13;;
3211;SDS011;1618;47.056;15.472;2023-04-24T00:22:40;5.90;;;5.33;;
3211;SDS011;1618;47.056;15.472;2023-04-24T00:25:07;5.90;;;5.40;;
3211;SDS011;1618;47.056;15.472;2023-04-24T00:27:36;5.37;;;4.97;;
3211;SDS011;1618;47.056;15.472;2023-04-24T00:30:04;4.67;;;4.33;;
3211;SDS011;1618;47.056;15.472;2023-04-24T00:32:31;4.93;;;4.57;;
3211;SDS011;1618;47.056;15.472;2023-04-24T00:35:04;5.00;;;4.53;;
3211;SDS011;1618;47.056;15.472;2023-04-24T00:37:33;5.00;;;4.60;;
3211;SDS011;1618;47.056;15.472;2023-04-24T00:40:02;5.17;;;4.80;;
3211;SDS011;1618;47.056;15.472;2023-04-24T00:42:30;5.63;;;5.23;;
3211;SDS011;1618;47.056;15.472;2023-04-24T00:44:59;4.83;;;4.53;;
3211;SDS011;1618;47.056;15.472;2023-04-24T00:47:29;5.47;;;4.97;;
3211;SDS011;1618;47.056;15.472;2023-04-24T00:50:01;5.00;;;4.60;;
3211;SDS011;1618;47.056;15.472;2023-04-24T00:52:31;5.10;;;4.70;;
3211;SDS011;1618;47.056;15.472;2023-04-24T00:54:58;4.93;;;4.43;;
3211;SDS011;1618;47.056;15.472;2023-04-24T00:57:26;5.20;;;4.90;;
3211;SDS011;1618;47.056;15.472;2023-04-24T00:59:54;5.23;;;4.53;;
3211;SDS011;1618;47.056;15.472;2023-04-24T01:02:25;4.93;;;4.53;;
3211;SDS011;1618;47.056;15.472;2023-04-24T01:04:59;4.80;;;4.40;;
3211;SDS011;1618;47.056;15.472;2023-04-24T01:07:28;4.97;;;4.03;;
3211;SDS011;1618;47.056;15.472;2023-04-24T01:09:56;5.10;;;4.70;;
3211;SDS011;1618;47.056;15.472;2023-04-24T01:12:25;4.17;;;3.87;;
3211;SDS011;1618;47.056;15.472;2023-04-24T01:14:53;4.83;;;4.47;;
3211;SDS011;1618;47.056;15.472;2023-04-24T01:17:21;4.40;;;4.10;;
3211;SDS011;1618;47.056;15.472;2023-04-24T01:19:51;4.87;;;4.50;;
3211;SDS011;1618;47.056;15.472;2023-04-24T01:22:20;4.83;;;4.53;;
3211;SDS011;1618;47.056;15.472;2023-04-24T01:24:49;4.30;;;4.07;;
3211;SDS011;1618;47.056;15.472;2023-04-24T01:27:17;4.60;;;4.30;;
3211;SDS011;1618;47.056;15.472;2023-04-24T01:29:44;4.83;;;4.30;;
3211;SDS011;1618;47.056;15.472;2023-04-24T01:32:13;5.43;;;4.37;;
3211;SDS011;1618;47.056;15.472;2023-04-24T01:34:44;4.87;;;4.50;;
3211;SDS011;1618;47.056;15.472;2023-04-24T01:37:11;4.27;;;3.97;;
3211;SDS011;1618;47.056;15.472;2023-04-24T01:39:42;5.33;;;4.93;;
3211;SDS011;1618;47.056;15.472;2023-04-24T01:42:10;4.83;;;4.40;;
3211;SDS011;1618;47.056;15.472;2023-04-24T01:44:39;5.30;;;4.90;;
3211;SDS011;1618;47.056;15.472;2023-04-24T01:47:08;5.00;;;4.60;;
3211;SDS011;1618;47.056;15.472;2023-04-24T01:49:38;5.27;;;4.87;;
3211;SDS011;1618;47.056;15.472;2023-04-24T01:52:06;4.47;;;4.17;;
3211;SDS011;1618;47.056;15.472;2023-04-24T01:54:35;4.97;;;4.57;;
3211;SDS011;1618;47.056;15.472;2023-04-24T01:57:04;4.50;;;4.20;;
3211;SDS011;1618;47.056;15.472;2023-04-24T01:59:33;4.90;;;4.60;;
3211;SDS011;1618;47.056;15.472;2023-04-24T02:02:01;5.27;;;4.97;;
3211;SDS011;1618;47.056;15.472;2023-04-24T02:04:29;5.10;;;4.80;;
3211;SDS011;1618;47.056;15.472;2023-04-24T02:06:56;4.80;;;4.50;;
3211;SDS011;1618;47.056;15.472;2023-04-24T02:09:26;4.60;;;4.30;;
3211;SDS011;1618;47.056;15.472;2023-04-24T02:11:55;5.27;;;4.87;;
3211;SDS011;1618;47.056;15.472;2023-04-24T02:14:31;4.83;;;4.53;;
3211;SDS011;1618;47.056;15.472;2023-04-24T02:16:58;5.07;;;4.63;;
3211;SDS011;1618;47.056;15.472;2023-04-24T02:19:28;4.63;;;4.30;;
3211;SDS011;1618;47.056;15.472;2023-04-24T02:21:57;4.87;;;4.47;;
3211;SDS011;1618;47.056;15.472;2023-04-24T02:24:25;5.23;;;4.53;;
3211;SDS011;1618;47.056;15.472;2023-04-24T02:26:54;5.07;;;4.60;;
3211;SDS011;1618;47.056;15.472;2023-04-24T02:29:22;7.67;;;4.80;;
3211;SDS011;1618;47.056;15.472;2023-04-24T02:31:53;4.20;;;3.83;;
3211;SDS011;1618;47.056;15.472;2023-04-24T02:34:22;4.53;;;4.23;;
3211;SDS011;1618;47.056;15.472;2023-04-24T02:36:51;5.10;;;4.20;;
3211;SDS011;1618;47.056;15.472;2023-04-24T02:39:20;4.70;;;4.40;;
3211;SDS011;1618;47.056;15.472;2023-04-24T02:41:48;5.43;;;5.03;;
3211;SDS011;1618;47.056;15.472;2023-04-24T02:44:15;5.20;;;4.70;;
3211;SDS011;1618;47.056;15.472;2023-04-24T02:46:44;4.80;;;4.40;;
3211;SDS011;1618;47.056;15.472;2023-04-24T02:49:14;4.63;;;4.37;;
3211;SDS011;1618;47.056;15.472;2023-04-24T02:51:42;4.83;;;4.53;;
3211;SDS011;1618;47.056;15.472;2023-04-24T02:54:09;6.37;;;5.10;;
3211;SDS011;1618;47.056;15.472;2023-04-24T02:56:38;4.47;;;4.17;;
3211;SDS011;1618;47.056;15.472;2023-04-24T02:59:05;5.23;;;4.93;;
3211;SDS011;1618;47.056;15.472;2023-04-24T03:01:34;5.90;;;5.40;;
3211;SDS011;1618;47.056;15.472;2023-04-24T03:04:02;7.13;;;5.10;;
3211;SDS011;1618;47.056;15.472;2023-04-24T03:06:33;6.87;;;6.27;;
3211;SDS011;1618;47.056;15.472;2023-04-24T03:09:02;5.30;;;4.90;;
3211;SDS011;1618;47.056;15.472;2023-04-24T03:11:32;5.60;;;5.20;;
3211;SDS011;1618;47.056;15.472;2023-04-24T03:14:00;4.53;;;4.23;;
3211;SDS011;1618;47.056;15.472;2023-04-24T03:16:29;5.60;;;4.53;;
3211;SDS011;1618;47.056;15.472;2023-04-24T03:18:58;4.67;;;4.37;;
3211;SDS011;1618;47.056;15.472;2023-04-24T03:21:25;6.77;;;5.50;;
3211;SDS011;1618;47.056;15.472;2023-04-24T03:23:54;4.73;;;4.43;;
3211;SDS011;1618;47.056;15.472;2023-04-24T03:26:21;4.87;;;4.53;;
3211;SDS011;1618;47.056;15.472;2023-04-24T03:28:50;5.33;;;4.93;;
3211;SDS011;1618;47.056;15.472;2023-04-24T03:31:23;4.50;;;4.20;;
3211;SDS011;1618;47.056;15.472;2023-04-24T03:33:50;5.50;;;5.10;;
3211;SDS011;1618;47.056;15.472;2023-04-24T03:36:17;4.97;;;4.57;;
3211;SDS011;1618;47.056;15.472;2023-04-24T03:38:46;6.50;;;5.10;;
3211;SDS011;1618;47.056;15.472;2023-04-24T03:41:16;5.57;;;5.00;;
3211;SDS011;1618;47.056;15.472;2023-04-24T03:43:45;4.43;;;4.13;;
3211;SDS011;1618;47.056;15.472;2023-04-24T03:46:12;4.80;;;4.40;;
3211;SDS011;1618;47.056;15.472;2023-04-24T03:48:41;5.87;;;5.37;;
3211;SDS011;1618;47.056;15.472;2023-04-24T03:51:13;6.60;;;4.63;;
3211;SDS011;1618;47.056;15.472;2023-04-24T03:53:45;5.60;;;5.10;;
3211;SDS011;1618;47.056;15.472;2023-04-24T03:56:15;5.33;;;4.90;;
3211;SDS011;1618;47.056;15.472;2023-04-24T03:58:45;4.93;;;4.60;;
3211;SDS011;1618;47.056;15.472;2023-04-24T04:01:14;4.73;;;4.40;;
3211;SDS011;1618;47.056;15.472;2023-04-24T04:03:42;4.60;;;3.83;;
3211;SDS011;1618;47.056;15.472;2023-04-24T04:06:09;5.63;;;5.03;;
3211;SDS011;1618;47.056;15.472;2023-04-24T04:08:38;5.70;;;5.20;;
3211;SDS011;1618;47.056;15.472;2023-04-24T04:11:06;6.00;;;4.53;;
3211;SDS011;1618;47.056;15.472;2023-04-24T04:13:36;4.60;;;4.27;;
3211;SDS011;1618;47.056;15.472;2023-04-24T04:16:03;5.40;;;4.87;;
3211;SDS011;1618;47.056;15.472;2023-04-24T04:18:30;5.37;;;4.87;;
3211;SDS011;1618;47.056;15.472;2023-04-24T04:20:59;5.60;;;5.10;;
3211;SDS011;1618;47.056;15.472;2023-04-24T04:23:26;7.80;;;5.97;;
3211;SDS011;1618;47.056;15.472;2023-04-24T04:25:55;5.47;;;5.07;;
3211;SDS011;1618;47.056;15.472;2023-04-24T04:28:25;5.43;;;5.03;;
3211;SDS011;1618;47.056;15.472;2023-04-24T04:30:53;5.97;;;5.03;;
3211;SDS011;1618;47.056;15.472;2023-04-24T04:33:22;5.30;;;4.90;;
3211;SDS011;1618;47.056;15.472;2023-04-24T04:35:50;6.13;;;5.53;;
3211;SDS011;1618;47.056;15.472;2023-04-24T04:38:19;5.00;;;4.60;;
3211;SDS011;1618;47.056;15.472;2023-04-24T04:40:47;5.27;;;4.83;;
3211;SDS011;1618;47.056;15.472;2023-04-24T04:43:16;7.50;;;6.80;;
3211;SDS011;1618;47.056;15.472;2023-04-24T04:45:45;13.23;;;9.20;;
3211;SDS011;1618;47.056;15.472;2023-04-24T04:48:24;14.40;;;7.73;;
3211;SDS011;1618;47.056;15.472;2023-04-24T04:50:54;7.00;;;6.30;;
3211;SDS011;1618;47.056;15.472;2023-04-24T04:53:21;6.83;;;6.10;;
3211;SDS011;1618;47.056;15.472;2023-04-24T04:55:52;5.67;;;5.07;;
3211;SDS011;1618;47.056;15.472;2023-04-24T04:58:20;9.10;;;6.33;;
3211;SDS011;1618;47.056;15.472;2023-04-24T05:00:49;8.27;;;6.00;;
3211;SDS011;1618;47.056;15.472;2023-04-24T05:03:20;6.37;;;5.37;;
3211;SDS011;1618;47.056;15.472;2023-04-24T05:05:51;6.03;;;5.47;;
3211;SDS011;1618;47.056;15.472;2023-04-24T05:08:22;6.70;;;5.83;;
3211;SDS011;1618;47.056;15.472;2023-04-24T05:10:50;7.40;;;5.70;;
3211;SDS011;1618;47.056;15.472;2023-04-24T05:13:18;6.20;;;5.60;;
3211;SDS011;1618;47.056;15.472;2023-04-24T05:15:48;6.70;;;5.83;;
3211;SDS011;1618;47.056;15.472;2023-04-24T05:18:20;6.67;;;6.13;;
3211;SDS011;1618;47.056;15.472;2023-04-24T05:20:53;12.33;;;6.33;;
3211;SDS011;1618;47.056;15.472;2023-04-24T05:23:20;6.57;;;5.97;;
3211;SDS011;1618;47.056;15.472;2023-04-24T05:25:48;8.77;;;5.60;;
3211;SDS011;1618;47.056;15.472;2023-04-24T05:28:16;6.07;;;5.47;;
3211;SDS011;1618;47.056;15.472;2023-04-24T05:30:43;6.40;;;5.80;;
3211;SDS011;1618;47.056;15.472;2023-04-24T05:33:11;6.43;;;5.80;;
3211;SDS011;1618;47.056;15.472;2023-04-24T05:35:39;6.53;;;5.93;;
3211;SDS011;1618;47.056;15.472;2023-04-24T05:38:12;5.73;;;5.23;;
3211;SDS011;1618;47.056;15.472;2023-04-24T05:40:43;6.40;;;5.80;;
3211;SDS011;1618;47.056;15.472;2023-04-24T05:43:12;6.30;;;5.23;;
3211;SDS011;1618;47.056;15.472;2023-04-24T05:45:41;7.10;;;5.53;;
3211;SDS011;1618;47.056;15.472;2023-04-24T05:48:11;4.83;;;4.53;;
3211;SDS011;1618;47.056;15.472;2023-04-24T05:50:39;6.90;;;6.30;;
3211;SDS011;1618;47.056;15.472;2023-04-24T05:53:09;5.40;;;4.90;;
3211;SDS011;1618;47.056;15.472;2023-04-24T05:55:43;7.20;;;5.43;;
3211;SDS011;1618;47.056;15.472;2023-04-24T05:58:13;6.03;;;5.53;;
3211;SDS011;1618;47.056;15.472;2023-04-24T06:00:42;6.67;;;4.87;;
3211;SDS011;1618;47.056;15.472;2023-04-24T06:03:12;8.80;;;5.30;;
3211;SDS011;1618;47.056;15.472;2023-04-24T06:05:40;6.90;;;5.50;;
3211;SDS011;1618;47.056;15.472;2023-04-24T06:08:09;7.00;;;5.47;;
3211;SDS011;1618;47.056;15.472;2023-04-24T06:10:36;5.90;;;5.40;;
3211;SDS011;1618;47.056;15.472;2023-04-24T06:13:06;5.70;;;5.20;;
3211;SDS011;1618;47.056;15.472;2023-04-24T06:15:35;5.97;;;5.47;;
3211;SDS011;1618;47.056;15.472;2023-04-24T06:18:05;8.33;;;6.00;;
3211;SDS011;1618;47.056;15.472;2023-04-24T06:20:33;14.23;;;8.70;;
3211;SDS011;1618;47.056;15.472;2023-04-24T06:23:01;6.60;;;6.00;;
3211;SDS011;1618;47.056;15.472;2023-04-24T06:25:31;6.93;;;6.23;;
3211;SDS011;1618;47.056;15.472;2023-04-24T06:27:58;17.10;;;6.40;;
3211;SDS011;1618;47.056;15.472;2023-04-24T06:30:31;9.13;;;7.07;;
3211;SDS011;1618;47.056;15.472;2023-04-24T06:33:00;7.90;;;6.93;;
3211;SDS011;1618;47.056;15.472;2023-04-24T06:35:29;9.47;;;8.00;;
3211;SDS011;1618;47.056;15.472;2023-04-24T06:37:59;7.10;;;6.40;;
3211;SDS011;1618;47.056;15.472;2023-04-24T06:40:27;6.63;;;5.90;;
3211;SDS011;1618;47.056;15.472;2023-04-24T06:42:55;7.67;;;7.00;;
3211;SDS011;1618;47.056;15.472;2023-04-24T06:45:30;9.50;;;7.30;;
3211;SDS011;1618;47.056;15.472;2023-04-24T06:48:01;7.90;;;7.20;;
3211;SDS011;1618;47.056;15.472;2023-04-24T06:50:34;8.30;;;7.50;;
3211;SDS011;1618;47.056;15.472;2023-04-24T06:53:03;9.03;;;8.43;;
3211;SDS011;1618;47.056;15.472;2023-04-24T06:55:30;7.80;;;7.20;;
3211;SDS011;1618;47.056;15.472;2023-04-24T06:57:58;8.17;;;7.67;;
3211;SDS011;1618;47.056;15.472;2023-04-24T07:00:25;7.93;;;7.33;;
3211;SDS011;1618;47.056;15.472;2023-04-24T07:03:00;11.00;;;10.10;;
3211;SDS011;1618;47.056;15.472;2023-04-24T07:05:32;11.53;;;10.43;;
3211;SDS011;1618;47.056;15.472;2023-04-24T07:08:00;10.13;;;9.43;;
3211;SDS011;1618;47.056;15.472;2023-04-24T07:10:27;11.60;;;10.70;;
3211;SDS011;1618;47.056;15.472;2023-04-24T07:12:56;11.37;;;10.33;;
3211;SDS011;1618;47.056;15.472;2023-04-24T07:15:24;12.73;;;11.73;;
3211;SDS011;1618;47.056;15.472;2023-04-24T07:17:53;12.10;;;11.40;;
3211;SDS011;1618;47.056;15.472;2023-04-24T07:20:22;12.67;;;11.77;;
3211;SDS011;1618;47.056;15.472;2023-04-24T07:22:49;13.80;;;12.67;;
3211;SDS011;1618;47.056;15.472;2023-04-24T07:25:19;17.43;;;15.90;;
3211;SDS011;1618;47.056;15.472;2023-04-24T07:27:47;12.20;;;11.00;;
3211;SDS011;1618;47.056;15.472;2023-04-24T07:30:15;11.27;;;10.37;;
3211;SDS011;1618;47.056;15.472;2023-04-24T07:32:43;11.27;;;10.17;;
3211;SDS011;1618;47.056;15.472;2023-04-24T07:35:10;11.37;;;10.27;;
3211;SDS011;1618;47.056;15.472;2023-04-24T07:37:40;10.93;;;10.17;;
3211;SDS011;1618;47.056;15.472;2023-04-24T07:40:11;15.93;;;10.63;;
3211;SDS011;1618;47.056;15.472;2023-04-24T07:42:38;11.50;;;10.60;;
3211;SDS011;1618;47.056;15.472;2023-04-24T07:45:07;11.10;;;10.00;;
3211;SDS011;1618;47.056;15.472;2023-04-24T07:47:35;11.23;;;10.10;;
3211;SDS011;1618;47.056;15.472;2023-04-24T07:50:05;10.13;;;9.20;;
3211;SDS011;1618;47.056;15.472;2023-04-24T07:52:35;12.60;;;9.53;;
3211;SDS011;1618;47.056;15.472;2023-04-24T07:55:05;10.43;;;9.43;;
3211;SDS011;1618;47.056;15.472;2023-04-24T07:57:37;11.40;;;10.23;;
3211;SDS011;1618;47.056;15.472;2023-04-24T08:00:05;10.57;;;9.50;;
3211;SDS011;1618;47.056;15.472;2023-04-24T08:02:34;9.30;;;8.40;;
3211;SDS011;1618;47.056;15.472;2023-04-24T08:05:03;9.70;;;8.70;;
3211;SDS011;1618;47.056;15.472;2023-04-24T08:07:31;10.20;;;9.10;;
3211;SDS011;1618;47.056;15.472;2023-04-24T08:10:00;13.30;;;8.33;;
3211;SDS011;1618;47.056;15.472;2023-04-24T08:12:30;10.90;;;9.30;;
3211;SDS011;1618;47.056;15.472;2023-04-24T08:14:57;13.17;;;9.67;;
3211;SDS011;1618;47.056;15.472;2023-04-24T08:17:24;13.70;;;9.93;;
3211;SDS011;1618;47.056;15.472;2023-04-24T08:19:52;11.90;;;9.37;;
3211;SDS011;1618;47.056;15.472;2023-04-24T08:22:27;9.53;;;8.53;;
3211;SDS011;1618;47.056;15.472;2023-04-24T08:24:57;13.13;;;9.53;;
3211;SDS011;1618;47.056;15.472;2023-04-24T08:27:26;19.53;;;11.23;;
3211;SDS011;1618;47.056;15.472;2023-04-24T08:29:55;13.67;;;9.73;;
3211;SDS011;1618;47.056;15.472;2023-04-24T08:32:22;11.00;;;9.90;;
3211;SDS011;1618;47.056;15.472;2023-04-24T08:34:50;8.40;;;7.60;;
3211;SDS011;1618;47.056;15.472;2023-04-24T08:37:19;14.10;;;9.67;;
3211;SDS011;1618;47.056;15.472;2023-04-24T08:39:48;12.40;;;11.10;;
3211;SDS011;1618;47.056;15.472;2023-04-24T08:42:16;11.13;;;8.97;;
3211;SDS011;1618;47.056;15.472;2023-04-24T08:44:45;10.40;;;9.33;;
3211;SDS011;1618;47.056;15.472;2023-04-24T08:47:13;12.00;;;10.80;;
3211;SDS011;1618;47.056;15.472;2023-04-24T08:49:43;11.50;;;9.43;;
3211;SDS011;1618;47.056;15.472;2023-04-24T08:52:10;14.40;;;10.27;;
3211;SDS011;1618;47.056;15.472;2023-04-24T08:54:39;12.57;;;9.33;;
3211;SDS011;1618;47.056;15.472;2023-04-24T08:57:08;11.90;;;10.67;;
3211;SDS011;1618;47.056;15.472;2023-04-24T08:59:36;10.53;;;9.50;;
3211;SDS011;1618;47.056;15.472;2023-04-24T09:02:05;10.03;;;8.30;;
3211;SDS011;1618;47.056;15.472;2023-04-24T09:04:35;13.37;;;10.17;;
3211;SDS011;1618;47.056;15.472;2023-04-24T09:07:03;9.80;;;8.77;;
3211;SDS011;1618;47.056;15.472;2023-04-24T09:09:31;14.43;;;10.77;;
3211;SDS011;1618;47.056;15.472;2023-04-24T09:12:01;11.30;;;10.07;;
3211;SDS011;1618;47.056;15.472;2023-04-24T09:14:30;14.40;;;12.90;;
3211;SDS011;1618;47.056;15.472;2023-04-24T09:16:59;15.07;;;10.43;;
3211;SDS011;1618;47.056;15.472;2023-04-24T09:19:27;10.00;;;8.63;;
3211;SDS011;1618;47.056;15.472;2023-04-24T09:22:00;7.07;;;6.47;;
3211;SDS011;1618;47.056;15.472;2023-04-24T09:24:31;7.70;;;6.27;;
3211;SDS011;1618;47.056;15.472;2023-04-24T09:27:01;7.70;;;6.10;;
3211;SDS011;1618;47.056;15.472;2023-04-24T09:29:28;6.33;;;5.80;;
3211;SDS011;1618;47.056;15.472;2023-04-24T09:31:59;6.17;;;5.67;;
3211;SDS011;1618;47.056;15.472;2023-04-24T09:34:27;13.93;;;6.20;;
3211;SDS011;1618;47.056;15.472;2023-04-24T09:36:54;5.70;;;5.20;;
3211;SDS011;1618;47.056;15.472;2023-04-24T09:39:23;7.53;;;5.97;;
3211;SDS011;1618;47.056;15.472;2023-04-24T09:41:52;7.43;;;5.33;;
3211;SDS011;1618;47.056;15.472;2023-04-24T09:44:21;4.83;;;3.97;;
3211;SDS011;1618;47.056;15.472;2023-04-24T09:46:50;4.23;;;3.93;;
3211;SDS011;1618;47.056;15.472;2023-04-24T09:49:22;5.10;;;4.70;;
3211;SDS011;1618;47.056;15.472;2023-04-24T09:51:50;4.03;;;3.47;;
3211;SDS011;1618;47.056;15.472;2023-04-24T09:54:19;5.10;;;3.60;;
3211;SDS011;1618;47.056;15.472;2023-04-24T09:56:51;3.37;;;3.17;;
3211;SDS011;1618;47.056;15.472;2023-04-24T09:59:19;3.07;;;2.87;;
3211;SDS011;1618;47.056;15.472;2023-04-24T10:01:47;3.87;;;3.57;;
3211;SDS011;1618;47.056;15.472;2023-04-24T10:04:16;3.40;;;3.20;;
3211;SDS011;1618;47.056;15.472;2023-04-24T10:06:44;3.13;;;2.93;;
3211;SDS011;1618;47.056;15.472;2023-04-24T10:09:14;2.93;;;2.73;;
3211;SDS011;1618;47.056;15.472;2023-04-24T10:11:44;2.63;;;2.53;;
3211;SDS011;1618;47.056;15.472;2023-04-24T10:14:20;3.00;;;2.80;;
3211;SDS011;1618;47.056;15.472;2023-04-24T10:16:47;3.20;;;2.90;;
3211;SDS011;1618;47.056;15.472;2023-04-24T10:19:17;3.13;;;2.23;;
3211;SDS011;1618;47.056;15.472;2023-04-24T10:21:46;3.10;;;2.93;;
3211;SDS011;1618;47.056;15.472;2023-04-24T10:24:15;3.40;;;3.30;;
3211;SDS011;1618;47.056;15.472;2023-04-24T10:26:43;3.50;;;3.20;;
3211;SDS011;1618;47.056;15.472;2023-04-24T10:29:12;3.37;;;3.10;;
3211;SDS011;1618;47.056;15.472;2023-04-24T10:31:41;2.40;;;2.30;;
3211;SDS011;1618;47.056;15.472;2023-04-24T10:34:11;3.33;;;3.23;;
3211;SDS011;1618;47.056;15.472;2023-04-24T10:36:40;3.77;;;3.57;;
3211;SDS011;1618;47.056;15.472;2023-04-24T10:39:13;5.00;;;3.37;;
3211;SDS011;1618;47.056;15.472;2023-04-24T10:41:41;4.90;;;4.70;;
3211;SDS011;1618;47.056;15.472;2023-04-24T10:44:09;5.20;;;4.90;;
3211;SDS011;1618;47.056;15.472;2023-04-24T10:46:36;8.40;;;7.90;;
3211;SDS011;1618;47.056;15.472;2023-04-24T10:49:06;6.80;;;6.50;;
3211;SDS011;1618;47.056;15.472;2023-04-24T10:51:47;8.50;;;8.00;;
3211;SDS011;1618;47.056;15.472;2023-04-24T10:54:25;8.10;;;7.80;;
3211;SDS011;1618;47.056;15.472;2023-04-24T10:59:37;7.80;;;7.20;;
3211;SDS011;1618;47.056;15.472;2023-04-24T11:02:04;7.17;;;6.87;;
3211;SDS011;1618;47.056;15.472;2023-04-24T11:04:36;9.20;;;8.80;;
3211;SDS011;1618;47.056;15.472;2023-04-24T11:07:03;10.70;;;10.20;;
3211;SDS011;1618;47.056;15.472;2023-04-24T11:09:32;13.40;;;12.77;;
3211;SDS011;1618;47.056;15.472;2023-04-24T11:12:06;17.27;;;16.37;;
3211;SDS011;1618;47.056;15.472;2023-04-24T11:17:28;18.00;;;17.10;;
3211;SDS011;1618;47.056;15.472;2023-04-24T11:20:03;18.37;;;17.47;;
3211;SDS011;1618;47.056;15.472;2023-04-24T11:22:34;17.50;;;16.57;;
3211;SDS011;1618;47.056;15.472;2023-04-24T11:25:02;19.13;;;18.13;;
3211;SDS011;1618;47.056;15.472;2023-04-24T11:27:32;21.27;;;19.97;;
3211;SDS011;1618;47.056;15.472;2023-04-24T11:30:05;20.00;;;19.00;;
3211;SDS011;1618;47.056;15.472;2023-04-24T11:32:35;19.50;;;18.40;;
3211;SDS011;1618;47.056;15.472;2023-04-24T11:35:06;22.83;;;21.10;;
3211;SDS011;1618;47.056;15.472;2023-04-24T11:37:35;20.90;;;19.80;;
3211;SDS011;1618;47.056;15.472;2023-04-24T11:40:04;19.47;;;18.47;;
3211;SDS011;1618;47.056;15.472;2023-04-24T11:42:35;23.73;;;21.97;;
3211;SDS011;1618;47.056;15.472;2023-04-24T11:45:06;25.03;;;23.10;;
3211;SDS011;1618;47.056;15.472;2023-04-24T11:47:38;24.57;;;22.20;;
3211;SDS011;1618;47.056;15.472;2023-04-24T11:50:09;23.70;;;21.50;;
3211;SDS011;1618;47.056;15.472;2023-04-24T11:52:37;22.43;;;20.90;;
3211;SDS011;1618;47.056;15.472;2023-04-24T11:55:06;23.57;;;21.93;;
3211;SDS011;1618;47.056;15.472;2023-04-24T11:57:35;23.33;;;21.83;;
3211;SDS011;1618;47.056;15.472;2023-04-24T12:00:04;24.07;;;22.60;;
3211;SDS011;1618;47.056;15.472;2023-04-24T12:02:35;26.83;;;25.20;;
3211;SDS011;1618;47.056;15.472;2023-04-24T12:05:02;24.50;;;23.10;;
3211;SDS011;1618;47.056;15.472;2023-04-24T12:07:39;22.63;;;21.50;;
3211;SDS011;1618;47.056;15.472;2023-04-24T12:10:08;22.30;;;20.80;;
3211;SDS011;1618;47.056;15.472;2023-04-24T12:12:36;22.00;;;20.23;;
3211;SDS011;1618;47.056;15.472;2023-04-24T12:15:10;20.60;;;19.10;;
3211;SDS011;1618;47.056;15.472;2023-04-24T12:17:44;14.77;;;14.07;;
3211;SDS011;1618;47.056;15.472;2023-04-24T12:20:14;16.70;;;15.70;;
3211;SDS011;1618;47.056;15.472;2023-04-24T12:22:46;15.20;;;14.50;;
3211;SDS011;1618;47.056;15.472;2023-04-24T12:25:15;13.67;;;13.07;;
3211;SDS011;1618;47.056;15.472;2023-04-24T12:27:44;15.30;;;14.60;;
3211;SDS011;1618;47.056;15.472;2023-04-24T12:30:12;14.97;;;14.30;;
3211;SDS011;1618;47.056;15.472;2023-04-24T12:32:44;14.60;;;13.80;;
3211;SDS011;1618;47.056;15.472;2023-04-24T12:35:13;13.10;;;12.50;;
3211;SDS011;1618;47.056;15.472;2023-04-24T12:37:42;12.50;;;11.70;;
3211;SDS011;1618;47.056;15.472;2023-04-24T12:40:16;12.20;;;11.47;;
3211;SDS011;1618;47.056;15.472;2023-04-24T12:42:46;12.77;;;11.90;;
3211;SDS011;1618;47.056;15.472;2023-04-24T12:45:18;11.27;;;10.77;;
3211;SDS011;1618;47.056;15.472;2023-04-24T12:47:49;16.87;;;16.07;;
3211;SDS011;1618;47.056;15.472;2023-04-24T12:50:22;24.40;;;23.10;;
3211;SDS011;1618;47.056;15.472;2023-04-24T12:52:50;22.80;;;21.60;;
3211;SDS011;1618;47.056;15.472;2023-04-24T12:55:19;23.40;;;22.10;;
3211;SDS011;1618;47.056;15.472;2023-04-24T12:57:48;26.90;;;25.20;;
3211;SDS011;1618;47.056;15.472;2023-04-24T13:00:17;28.63;;;26.93;;
3211;SDS011;1618;47.056;15.472;2023-04-24T13:02:46;31.80;;;29.80;;
3211;SDS011;1618;47.056;15.472;2023-04-24T13:05:16;31.70;;;29.50;;
3211;SDS011;1618;47.056;15.472;2023-04-24T13:07:44;33.30;;;31.10;;
3211;SDS011;1618;47.056;15.472;2023-04-24T13:10:12;32.30;;;30.20;;
3211;SDS011;1618;47.056;15.472;2023-04-24T13:12:41;33.63;;;31.43;;
3211;SDS011;1618;47.056;15.472;2023-04-24T13:15:11;34.47;;;32.10;;
3211;SDS011;1618;47.056;15.472;2023-04-24T13:17:40;32.30;;;30.20;;
3211;SDS011;1618;47.056;15.472;2023-04-24T13:20:09;32.50;;;30.30;;
3211;SDS011;1618;47.056;15.472;2023-04-24T13:22:38;34.40;;;32.20;;
3211;SDS011;1618;47.056;15.472;2023-04-24T13:25:08;33.60;;;31.30;;
3211;SDS011;1618;47.056;15.472;2023-04-24T13:27:37;32.60;;;30.40;;
3211;SDS011;1618;47.056;15.472;2023-04-24T13:30:07;33.60;;;31.20;;
3211;SDS011;1618;47.056;15.472;2023-04-24T13:32:35;32.50;;;30.30;;
3211;SDS011;1618;47.056;15.472;2023-04-24T13:35:05;32.83;;;30.63;;
3211;SDS011;1618;47.056;15.472;2023-04-24T13:37:32;32.23;;;29.93;;
3211;SDS011;1618;47.056;15.472;2023-04-24T13:40:01;33.33;;;30.17;;
3211;SDS011;1618;47.056;15.472;2023-04-24T13:42:31;32.67;;;30.47;;
3211;SDS011;1618;47.056;15.472;2023-04-24T13:44:59;32.53;;;30.43;;
3211;SDS011;1618;47.056;15.472;2023-04-24T13:47:36;30.30;;;28.40;;
3211;SDS011;1618;47.056;15.472;2023-04-24T13:50:06;29.67;;;27.87;;
3211;SDS011;1618;47.056;15.472;2023-04-24T13:52:34;31.97;;;29.87;;
3211;SDS011;1618;47.056;15.472;2023-04-24T13:55:05;31.80;;;29.63;;
3211;SDS011;1618;47.056;15.472;2023-04-24T13:57:33;30.80;;;28.90;;
3211;SDS011;1618;47.056;15.472;2023-04-24T14:00:02;31.43;;;29.53;;
3211;SDS011;1618;47.056;15.472;2023-04-24T14:02:33;27.53;;;25.40;;
3211;SDS011;1618;47.056;15.472;2023-04-24T14:05:04;28.17;;;26.17;;
3211;SDS011;1618;47.056;15.472;2023-04-24T14:07:34;26.20;;;24.30;;
3211;SDS011;1618;47.056;15.472;2023-04-24T14:10:03;27.10;;;25.20;;
3211;SDS011;1618;47.056;15.472;2023-04-24T14:12:33;27.33;;;25.23;;
3211;SDS011;1618;47.056;15.472;2023-04-24T14:15:03;26.20;;;24.30;;
3211;SDS011;1618;47.056;15.472;2023-04-24T14:17:31;27.20;;;25.30;;
3211;SDS011;1618;47.056;15.472;2023-04-24T14:19:58;27.00;;;25.20;;
3211;SDS011;1618;47.056;15.472;2023-04-24T14:22:28;25.63;;;23.93;;
3211;SDS011;1618;47.056;15.472;2023-04-24T14:24:55;25.50;;;23.80;;
3211;SDS011;1618;47.056;15.472;2023-04-24T14:27:24;26.17;;;24.17;;
3211;SDS011;1618;47.056;15.472;2023-04-24T14:29:51;25.20;;;23.13;;
3211;SDS011;1618;47.056;15.472;2023-04-24T14:32:20;24.80;;;23.40;;
3211;SDS011;1618;47.056;15.472;2023-04-24T14:34:48;27.20;;;25.50;;
3211;SDS011;1618;47.056;15.472;2023-04-24T14:37:17;25.07;;;23.47;;
3211;SDS011;1618;47.056;15.472;2023-04-24T14:39:46;27.10;;;25.20;;
3211;SDS011;1618;47.056;15.472;2023-04-24T14:42:14;27.90;;;26.00;;
3211;SDS011;1618;47.056;15.472;2023-04-24T14:44:42;26.07;;;24.20;;
3211;SDS011;1618;47.056;15.472;2023-04-24T14:47:14;26.70;;;24.53;;
3211;SDS011;1618;47.056;15.472;2023-04-24T14:49:44;24.10;;;22.60;;
3211;SDS011;1618;47.056;15.472;2023-04-24T14:52:12;23.70;;;22.20;;
3211;SDS011;1618;47.056;15.472;2023-04-24T14:54:43;25.00;;;23.30;;
3211;SDS011;1618;47.056;15.472;2023-04-24T14:57:15;22.83;;;20.90;;
3211;SDS011;1618;47.056;15.472;2023-04-24T14:59:44;20.50;;;19.40;;
3211;SDS011;1618;47.056;15.472;2023-04-24T15:02:12;19.70;;;18.63;;
3211;SDS011;1618;47.056;15.472;2023-04-24T15:04:41;17.57;;;16.57;;
3211;SDS011;1618;47.056;15.472;2023-04-24T15:07:08;19.03;;;18.13;;